Time;durP1;ratioP1;P1;durP2;ratioP2;P2;SDS_P1;SDS_P2;PMS_P1;PMS_P2;Temp;Humidity;BMP_temperature;BMP_pressure;BME280_temperature;BME280_humidity;BME280_pressure;Samples;Min_cycle;Max_cycle;Signal;HPM_P1;HPM_P2
2023/05/25 00:01:36;;;;;;;26.70;10.40;;;;;;;8.50;97.60;101761.83;106112;1270;71281;-65
2023/05/25 00:04:03;;;;;;;17.60;10.10;;;;;;;8.46;97.33;101758.81;106031;1270;71902;-64
2023/05/25 00:06:31;;;;;;;25.80;10.50;;;;;;;8.41;97.44;101754.83;106152;1268;61919;-59
2023/05/25 00:08:58;;;;;;;20.80;10.20;;;;;;;8.37;97.84;101755.13;106193;1270;61193;-59
2023/05/25 00:11:25;;;;;;;23.00;10.50;;;;;;;8.33;98.06;101757.45;106556;1270;61185;-63
2023/05/25 00:13:52;;;;;;;22.40;10.60;;;;;;;8.30;98.28;101757.92;106127;1270;70457;-65
2023/05/25 00:16:19;;;;;;;25.30;10.50;;;;;;;8.27;98.16;101765.61;105892;1271;72790;-64
2023/05/25 00:18:47;;;;;;;23.50;10.90;;;;;;;8.23;98.41;101764.20;105987;1270;61269;-65
2023/05/25 00:21:14;;;;;;;23.50;10.10;;;;;;;8.19;98.75;101758.31;106179;1268;61383;-64
2023/05/25 00:23:42;;;;;;;22.40;9.90;;;;;;;8.17;98.91;101757.73;106252;1270;75324;-63
2023/05/25 00:26:08;;;;;;;23.20;10.40;;;;;;;8.15;99.02;101757.39;106250;1271;70134;-63
2023/05/25 00:28:35;;;;;;;23.50;10.50;;;;;;;8.12;99.09;101758.77;106128;1270;61303;-64
2023/05/25 00:31:01;;;;;;;26.30;10.30;;;;;;;8.08;99.11;101760.50;106362;1271;61381;-64
2023/05/25 00:33:28;;;;;;;21.30;9.70;;;;;;;8.06;99.06;101759.44;106087;1270;61265;-62
2023/05/25 00:35:56;;;;;;;25.30;10.60;;;;;;;8.05;99.43;101758.86;105953;1270;75869;-61
2023/05/25 00:38:23;;;;;;;22.50;10.80;;;;;;;8.02;99.57;101758.52;106171;1268;71302;-58
2023/05/25 00:40:55;;;;;;;23.90;10.70;;;;;;;7.99;99.54;101760.05;106178;1270;71654;-60
2023/05/25 00:43:22;;;;;;;24.30;11.10;;;;;;;7.96;99.86;101761.01;106314;1270;61154;-64
2023/05/25 00:45:52;;;;;;;28.30;11.80;;;;;;;7.93;99.90;101767.39;106096;1269;61715;-59
2023/05/25 00:48:19;;;;;;;24.40;11.10;;;;;;;7.90;99.83;101764.50;106244;1270;73660;-63
2023/05/25 00:50:46;;;;;;;26.30;11.40;;;;;;;7.87;99.80;101763.67;106347;1270;71276;-64
2023/05/25 00:53:13;;;;;;;22.30;11.20;;;;;;;7.85;99.99;101762.14;106300;1270;72523;-63
2023/05/25 00:56:01;;;;;;;27.50;11.80;;;;;;;7.82;99.92;101758.67;106439;1269;61256;-63
2023/05/25 00:58:32;;;;;;;22.70;11.10;;;;;;;7.78;99.93;101758.65;106116;1270;61290;-63
2023/05/25 01:01:00;;;;;;;29.60;11.30;;;;;;;7.75;99.92;101759.19;106306;1268;74839;-62
2023/05/25 01:03:33;;;;;;;19.80;11.50;;;;;;;7.73;100.00;101759.92;106002;1271;71792;-65
2023/05/25 01:06:01;;;;;;;24.80;10.70;;;;;;;7.70;100.00;101762.65;106300;1269;71410;-63
2023/05/25 01:08:32;;;;;;;22.20;11.90;;;;;;;7.67;100.00;101762.59;106571;1270;61646;-60
2023/05/25 01:11:02;;;;;;;25.60;11.80;;;;;;;7.63;100.00;101767.89;106731;1271;61569;-63
2023/05/25 01:13:29;;;;;;;26.50;12.30;;;;;;;7.59;100.00;101770.44;106458;1269;73539;-61
2023/05/25 01:15:57;;;;;;;22.90;11.70;;;;;;;7.58;100.00;101768.09;106802;1269;70078;-62
2023/05/25 01:18:23;;;;;;;26.10;11.60;;;;;;;7.57;100.00;101769.45;106481;1269;72197;-63
2023/05/25 01:21:12;;;;;;;26.10;11.40;;;;;;;7.54;100.00;101771.96;106428;1271;62367;-65
2023/05/25 01:24:10;;;;;;;26.10;11.80;;;;;;;7.51;100.00;101767.63;107225;1270;59458;-63
2023/05/25 01:26:47;;;;;;;22.30;11.40;;;;;;;7.49;100.00;101768.84;106785;1268;74503;-62
2023/05/25 01:29:16;;;;;;;21.20;11.30;;;;;;;7.47;100.00;101768.98;106167;1271;70066;-60
2023/05/25 01:31:45;;;;;;;26.10;11.10;;;;;;;7.45;100.00;101764.25;106645;1271;72799;-59
2023/05/25 01:34:12;;;;;;;22.80;10.90;;;;;;;7.44;100.00;101763.30;106239;1272;61316;-59
2023/05/25 01:36:39;;;;;;;21.90;11.40;;;;;;;7.41;100.00;101763.39;107475;1269;61339;-62
2023/05/25 01:39:06;;;;;;;23.50;11.00;;;;;;;7.38;100.00;101764.34;107698;1270;75731;-63
2023/05/25 01:41:32;;;;;;;23.80;11.10;;;;;;;7.34;100.00;101757.44;107635;1270;68917;-62
2023/05/25 01:43:59;;;;;;;21.90;11.00;;;;;;;7.32;100.00;101758.48;106727;1271;59630;-62
2023/05/25 01:46:36;;;;;;;31.60;11.00;;;;;;;7.29;100.00;101757.66;107422;1271;62625;-60
2023/05/25 01:49:25;;;;;;;24.20;11.30;;;;;;;7.26;100.00;101759.86;106708;1271;60438;-62
2023/05/25 01:52:07;;;;;;;24.50;11.60;;;;;;;7.24;100.00;101762.83;107322;1269;74255;-64
2023/05/25 01:54:42;;;;;;;27.70;12.10;;;;;;;7.22;100.00;101758.23;107021;1270;70467;-63
2023/05/25 01:57:12;;;;;;;31.10;12.40;;;;;;;7.20;100.00;101763.55;106496;1270;72769;-65
2023/05/25 01:59:42;;;;;;;28.40;12.70;;;;;;;7.16;100.00;101764.23;106494;1270;61387;-60
2023/05/25 02:02:09;;;;;;;29.00;12.80;;;;;;;7.13;100.00;101760.70;106830;1268;60452;-64
2023/05/25 02:04:36;;;;;;;28.70;12.90;;;;;;;7.11;100.00;101757.58;106701;1269;74773;-64
2023/05/25 02:07:03;;;;;;;28.20;12.80;;;;;;;7.09;100.00;101757.38;106737;1269;71303;-63
2023/05/25 02:09:30;;;;;;;29.20;12.70;;;;;;;7.06;100.00;101756.16;106930;1270;72062;-64
2023/05/25 02:11:57;;;;;;;31.00;13.80;;;;;;;7.04;100.00;101757.27;106899;1269;60669;-64
2023/05/25 02:14:24;;;;;;;25.30;13.30;;;;;;;7.02;100.00;101759.88;106484;1268;61255;-64
2023/05/25 02:16:50;;;;;;;29.70;13.10;;;;;;;7.00;100.00;101758.45;106992;1269;75858;-63
2023/05/25 02:19:17;;;;;;;35.70;13.50;;;;;;;6.99;100.00;101757.67;106985;1269;61377;-63
2023/05/25 02:21:43;;;;;;;26.30;12.90;;;;;;;6.99;100.00;101760.11;107024;1269;71572;-63
2023/05/25 02:24:10;;;;;;;29.00;13.10;;;;;;;6.99;100.00;101761.36;106824;1271;61181;-63
2023/05/25 02:26:38;;;;;;;31.60;13.50;;;;;;;7.00;100.00;101761.87;107144;1271;61396;-64
2023/05/25 02:29:05;;;;;;;29.30;13.10;;;;;;;7.01;100.00;101762.45;106674;1269;73709;-65
2023/05/25 02:31:32;;;;;;;29.10;13.60;;;;;;;7.02;100.00;101764.13;106875;1273;72812;-64
2023/05/25 02:33:58;;;;;;;35.30;14.30;;;;;;;7.03;100.00;101767.36;106757;1268;72672;-62
2023/05/25 02:36:26;;;;;;;28.50;14.50;;;;;;;7.03;100.00;101764.03;106650;1271;60432;-62
2023/05/25 02:38:52;;;;;;;27.30;12.90;;;;;;;7.03;100.00;101772.33;106595;1270;61674;-62
2023/05/25 02:41:20;;;;;;;23.80;13.20;;;;;;;7.02;100.00;101771.88;106596;1271;74698;-63
2023/05/25 02:43:46;;;;;;;26.50;13.20;;;;;;;7.00;100.00;101772.92;106526;1269;72542;-65
2023/05/25 02:46:13;;;;;;;27.00;12.80;;;;;;;6.97;100.00;101770.83;106531;1267;73127;-62
2023/05/25 02:48:41;;;;;;;23.10;12.10;;;;;;;6.96;100.00;101778.35;106421;1270;59842;-64
2023/05/25 02:51:08;;;;;;;27.90;12.80;;;;;;;6.95;100.00;101775.04;106472;1271;61340;-63
2023/05/25 02:53:35;;;;;;;30.20;13.60;;;;;;;6.93;100.00;101774.61;106754;1269;74548;-64
2023/05/25 02:56:03;;;;;;;28.10;13.40;;;;;;;6.94;100.00;101775.77;106456;1271;71583;-63
2023/05/25 02:58:30;;;;;;;24.50;13.90;;;;;;;6.98;100.00;101783.12;106361;1271;72822;-65
2023/05/25 03:00:59;;;;;;;35.70;14.00;;;;;;;7.00;100.00;101780.64;105980;1269;61402;-63
2023/05/25 03:03:26;;;;;;;34.40;14.40;;;;;;;7.03;100.00;101783.93;106369;1271;61287;-60
2023/05/25 03:05:54;;;;;;;31.50;14.30;;;;;;;7.06;100.00;101787.02;106243;1273;74431;-60
2023/05/25 03:08:21;;;;;;;29.90;13.80;;;;;;;7.10;100.00;101781.20;106634;1270;71310;-63
2023/05/25 03:10:48;;;;;;;33.10;14.00;;;;;;;7.16;100.00;101784.80;106316;1270;71544;-62
2023/05/25 03:13:14;;;;;;;31.90;14.30;;;;;;;7.24;100.00;101788.54;106670;1273;60434;-62
2023/05/25 03:15:41;;;;;;;30.00;14.40;;;;;;;7.30;100.00;101787.34;106500;1270;61198;-63
2023/05/25 03:18:08;;;;;;;27.20;13.40;;;;;;;7.36;100.00;101785.09;106436;1270;73184;-62
2023/05/25 03:20:34;;;;;;;28.00;13.80;;;;;;;7.43;100.00;101788.53;106367;1272;61553;-62
2023/05/25 03:23:01;;;;;;;30.30;14.10;;;;;;;7.49;100.00;101789.77;106310;1271;72036;-64
2023/05/25 03:25:28;;;;;;;28.90;14.10;;;;;;;7.56;100.00;101786.20;106480;1273;61278;-64
2023/05/25 03:27:54;;;;;;;33.30;14.00;;;;;;;7.62;100.00;101787.52;106507;1270;61691;-63
2023/05/25 03:30:22;;;;;;;32.90;14.10;;;;;;;7.66;100.00;101790.47;106432;1269;62000;-59
2023/05/25 03:32:48;;;;;;;31.30;14.50;;;;;;;7.69;100.00;101788.61;106494;1268;70546;-61
2023/05/25 03:35:15;;;;;;;29.70;14.60;;;;;;;7.74;100.00;101792.94;106368;1270;72972;-63
2023/05/25 03:37:41;;;;;;;34.40;14.50;;;;;;;7.81;100.00;101795.60;106771;1270;61179;-61
2023/05/25 03:40:08;;;;;;;31.60;13.70;;;;;;;7.87;100.00;101794.91;106439;1270;59571;-63
2023/05/25 03:42:36;;;;;;;25.80;14.00;;;;;;;7.93;100.00;101793.34;106851;1269;73222;-61
2023/05/25 03:45:04;;;;;;;35.30;14.60;;;;;;;7.99;100.00;101798.30;106630;1270;70993;-61
2023/05/25 03:47:30;;;;;;;30.70;15.10;;;;;;;8.04;100.00;101804.34;106853;1271;72754;-62
2023/05/25 03:49:57;;;;;;;29.10;14.60;;;;;;;8.12;100.00;101801.74;106371;1269;61396;-59
2023/05/25 03:52:24;;;;;;;29.30;14.10;;;;;;;8.20;100.00;101805.95;106725;1272;61898;-59
2023/05/25 03:54:50;;;;;;;25.80;13.50;;;;;;;8.26;100.00;101808.86;106586;1269;73552;-59
2023/05/25 03:57:17;;;;;;;29.90;15.30;;;;;;;8.30;100.00;101807.82;106712;1270;71430;-64
2023/05/25 03:59:43;;;;;;;24.90;13.50;;;;;;;8.35;100.00;101812.42;106805;1272;71726;-64
2023/05/25 04:02:10;;;;;;;26.30;13.70;;;;;;;8.42;100.00;101814.53;106782;1270;60408;-64
2023/05/25 04:04:40;;;;;;;25.20;13.80;;;;;;;8.50;100.00;101814.68;106700;1272;61268;-61
2023/05/25 04:07:07;;;;;;;27.60;13.80;;;;;;;8.57;100.00;101821.14;106303;1271;74580;-60
2023/05/25 04:09:34;;;;;;;23.10;13.20;;;;;;;8.60;100.00;101819.66;106575;1270;71003;-63
2023/05/25 04:12:01;;;;;;;21.90;13.20;;;;;;;8.62;100.00;101823.70;106695;1269;70699;-62
2023/05/25 04:14:27;;;;;;;25.60;13.50;;;;;;;8.63;100.00;101824.02;106627;1272;61345;-61
2023/05/25 04:16:54;;;;;;;25.70;13.90;;;;;;;8.64;100.00;101820.77;106212;1268;61147;-62
2023/05/25 04:19:20;;;;;;;22.80;13.40;;;;;;;8.66;100.00;101820.74;106662;1273;61160;-65
2023/05/25 04:21:47;;;;;;;26.60;13.70;;;;;;;8.70;100.00;101821.81;106742;1270;59981;-62
2023/05/25 04:24:13;;;;;;;24.80;13.90;;;;;;;8.73;100.00;101824.86;106791;1270;61892;-62
2023/05/25 04:26:40;;;;;;;23.90;13.90;;;;;;;8.80;100.00;101823.54;106802;1273;61291;-61
2023/05/25 04:29:08;;;;;;;30.70;14.80;;;;;;;8.90;100.00;101828.08;106574;1270;61185;-66
2023/05/25 04:31:35;;;;;;;22.50;13.70;;;;;;;8.99;100.00;101831.55;106552;1271;74777;-67
2023/05/25 04:34:02;;;;;;;30.10;14.90;;;;;;;9.06;100.00;101829.34;106459;1270;71230;-66
2023/05/25 04:36:31;;;;;;;26.10;14.10;;;;;;;9.15;100.00;101831.88;106758;1271;71707;-63
2023/05/25 04:39:01;;;;;;;29.70;16.80;;;;;;;9.24;100.00;101835.35;106376;1271;61410;-62
2023/05/25 04:41:32;;;;;;;27.50;15.30;;;;;;;9.34;100.00;101837.98;107036;1271;61287;-63
2023/05/25 04:44:00;;;;;;;28.50;15.60;;;;;;;9.39;99.92;101840.85;106660;1271;75356;-65
2023/05/25 04:46:36;;;;;;;24.30;14.50;;;;;;;9.44;99.53;101835.51;106555;1273;70036;-65
2023/05/25 04:49:04;;;;;;;23.50;14.20;;;;;;;9.46;98.87;101836.73;106428;1269;71743;-62
2023/05/25 04:51:31;;;;;;;27.70;15.00;;;;;;;9.50;98.60;101840.79;106850;1272;61174;-66
2023/05/25 04:53:58;;;;;;;25.40;14.90;;;;;;;9.55;98.46;101846.09;106577;1270;60429;-64
2023/05/25 04:56:25;;;;;;;25.40;14.90;;;;;;;9.58;98.15;101847.23;107055;1269;73232;-62
2023/05/25 04:58:52;;;;;;;26.50;14.50;;;;;;;9.61;97.74;101846.31;106809;1270;69721;-63
2023/05/25 05:01:19;;;;;;;25.20;14.60;;;;;;;9.69;98.38;101843.46;106829;1272;72394;-64
2023/05/25 05:03:46;;;;;;;26.10;14.70;;;;;;;9.78;98.09;101844.88;106842;1271;61398;-63
2023/05/25 05:06:12;;;;;;;24.70;14.70;;;;;;;9.88;97.48;101848.83;106695;1270;61263;-64
2023/05/25 05:08:40;;;;;;;23.50;14.60;;;;;;;9.91;95.94;101847.98;106770;1271;59349;-65
2023/05/25 05:11:06;;;;;;;25.20;15.10;;;;;;;9.96;96.10;101846.05;106469;1268;71221;-64
2023/05/25 05:13:33;;;;;;;23.70;13.90;;;;;;;10.04;95.93;101847.52;107008;1269;61281;-66
2023/05/25 05:16:00;;;;;;;24.00;13.40;;;;;;;10.08;95.72;101850.28;106811;1269;60719;-66
2023/05/25 05:18:27;;;;;;;23.70;14.90;;;;;;;10.11;95.17;101853.65;106720;1270;61160;-63
2023/05/25 05:20:54;;;;;;;22.90;14.60;;;;;;;10.17;95.40;101858.25;106365;1270;74628;-66
2023/05/25 05:23:21;;;;;;;21.10;13.40;;;;;;;10.23;94.83;101859.14;106597;1272;69044;-66
2023/05/25 05:25:47;;;;;;;21.00;13.50;;;;;;;10.23;93.74;101861.95;106772;1270;73372;-65
2023/05/25 05:28:14;;;;;;;21.50;12.90;;;;;;;10.23;93.60;101860.58;106587;1270;61383;-63
2023/05/25 05:30:42;;;;;;;19.80;12.90;;;;;;;10.18;93.17;101866.52;106775;1269;61268;-64
2023/05/25 05:33:09;;;;;;;24.40;14.80;;;;;;;10.14;93.01;101868.80;106748;1271;74739;-65
2023/05/25 05:35:36;;;;;;;25.90;14.80;;;;;;;10.15;93.22;101864.76;106594;1268;70555;-65
2023/05/25 05:38:03;;;;;;;24.50;15.40;;;;;;;10.20;93.36;101873.18;106379;1273;71191;-66
2023/05/25 05:40:30;;;;;;;22.40;14.00;;;;;;;10.22;92.24;101877.08;106756;1270;61284;-66
2023/05/25 05:42:57;;;;;;;29.10;16.50;;;;;;;10.17;91.79;101881.55;106783;1270;61239;-64
2023/05/25 05:45:23;;;;;;;22.20;15.10;;;;;;;10.14;91.86;101884.13;106972;1270;74101;-65
2023/05/25 05:47:50;;;;;;;26.00;15.60;;;;;;;10.13;91.46;101889.68;106745;1269;70104;-64
2023/05/25 05:50:17;;;;;;;21.70;14.90;;;;;;;10.15;91.35;101887.62;106184;1272;71228;-67
2023/05/25 05:52:43;;;;;;;24.50;14.50;;;;;;;10.19;91.53;101889.54;106326;1272;61393;-66
2023/05/25 05:55:10;;;;;;;26.40;15.60;;;;;;;10.21;90.76;101897.84;105868;1272;61277;-65
2023/05/25 05:57:37;;;;;;;22.10;14.40;;;;;;;10.20;90.91;101896.85;106062;1270;73682;-66
2023/05/25 06:00:05;;;;;;;44.70;28.10;;;;;;;10.20;91.02;101904.48;105775;1270;71367;-65
2023/05/25 06:02:32;;;;;;;65.30;39.10;;;;;;;10.15;90.81;101905.61;105919;1269;71955;-61
2023/05/25 06:05:00;;;;;;;45.70;28.00;;;;;;;10.21;91.32;101905.57;105800;1269;62581;-60
2023/05/25 06:07:27;;;;;;;33.70;21.80;;;;;;;10.28;90.82;101910.68;106033;1272;61605;-64
2023/05/25 06:09:54;;;;;;;29.90;17.40;;;;;;;10.30;90.57;101911.92;106102;1273;74764;-62
2023/05/25 06:12:21;;;;;;;23.40;13.40;;;;;;;10.36;91.15;101917.48;106316;1272;71266;-61
2023/05/25 06:14:50;;;;;;;22.90;13.40;;;;;;;10.40;90.49;101926.34;105533;1276;73144;-63
2023/05/25 06:17:17;;;;;;;20.40;11.80;;;;;;;10.39;89.79;101930.31;105547;1271;60764;-63
2023/05/25 06:19:44;;;;;;;19.30;11.00;;;;;;;10.38;90.09;101932.52;106041;1270;61371;-62
2023/05/25 06:22:10;;;;;;;15.10;9.80;;;;;;;10.44;90.84;101932.34;105827;1273;73563;-63
2023/05/25 06:24:37;;;;;;;22.70;13.20;;;;;;;10.51;90.59;101934.30;105889;1273;61307;-62
2023/05/25 06:27:04;;;;;;;16.10;9.40;;;;;;;10.56;90.19;101933.17;105786;1270;61658;-63
2023/05/25 06:29:30;;;;;;;21.20;12.30;;;;;;;10.51;89.21;101937.31;106132;1273;62613;-62
2023/05/25 06:31:57;;;;;;;22.80;11.50;;;;;;;10.49;89.77;101933.64;105751;1271;61385;-61
2023/05/25 06:34:24;;;;;;;18.50;10.40;;;;;;;10.51;89.70;101939.48;105835;1273;59383;-62
2023/05/25 06:36:51;;;;;;;22.40;13.70;;;;;;;10.51;90.03;101934.73;105526;1270;70126;-62
2023/05/25 06:39:19;;;;;;;17.80;10.80;;;;;;;10.54;90.36;101934.05;105780;1273;71896;-58
2023/05/25 06:41:45;;;;;;;15.40;9.50;;;;;;;10.60;90.17;101937.73;105818;1270;61287;-64
2023/05/25 06:44:12;;;;;;;15.90;9.90;;;;;;;10.66;89.80;101943.94;105724;1270;61237;-62
2023/05/25 06:46:38;;;;;;;19.90;9.50;;;;;;;10.72;89.91;101942.42;106182;1269;73983;-59
2023/05/25 06:49:05;;;;;;;33.90;23.40;;;;;;;10.81;89.97;101939.08;105791;1271;71014;-63
2023/05/25 06:51:32;;;;;;;37.60;26.10;;;;;;;10.92;89.82;101943.90;106034;1270;71791;-63
2023/05/25 06:53:59;;;;;;;20.60;10.30;;;;;;;11.04;89.57;101946.27;105940;1275;61134;-62
2023/05/25 06:56:26;;;;;;;17.70;9.90;;;;;;;11.08;88.14;101953.06;105648;1270;61298;-61
2023/05/25 06:58:53;;;;;;;17.60;9.70;;;;;;;11.08;87.93;101954.98;105791;1270;72172;-60
2023/05/25 07:01:20;;;;;;;17.40;9.60;;;;;;;11.06;87.56;101955.48;105647;1274;61372;-60
2023/05/25 07:03:46;;;;;;;14.00;8.90;;;;;;;11.03;86.95;101957.60;106476;1269;71283;-62
2023/05/25 07:06:14;;;;;;;17.10;9.70;;;;;;;10.92;87.10;101956.45;106065;1271;61284;-57
2023/05/25 07:08:40;;;;;;;20.10;10.80;;;;;;;10.87;87.63;101958.60;105957;1272;61383;-60
2023/05/25 07:11:11;;;;;;;18.10;10.30;;;;;;;10.92;87.97;101959.81;105694;1270;73595;-60
2023/05/25 07:13:37;;;;;;;19.50;11.40;;;;;;;10.98;88.05;101961.88;105984;1272;70093;-61
2023/05/25 07:16:04;;;;;;;24.60;12.30;;;;;;;11.11;88.21;101962.79;106077;1273;61686;-61
2023/05/25 07:18:31;;;;;;;16.20;10.50;;;;;;;11.30;88.15;101960.09;105889;1270;61160;-62
2023/05/25 07:20:58;;;;;;;16.50;9.40;;;;;;;11.51;87.79;101962.79;106160;1270;61266;-62
2023/05/25 07:23:25;;;;;;;15.80;9.70;;;;;;;11.70;86.86;101960.45;105701;1273;74668;-63
2023/05/25 07:25:51;;;;;;;17.80;9.10;;;;;;;11.86;86.04;101958.88;105559;1269;70019;-60
2023/05/25 07:28:18;;;;;;;16.90;9.30;;;;;;;12.05;85.28;101959.73;105749;1270;61684;-61
2023/05/25 07:30:44;;;;;;;16.80;9.20;;;;;;;12.20;84.28;101961.59;105942;1272;61400;-62
2023/05/25 07:33:11;;;;;;;14.30;8.80;;;;;;;12.33;84.06;101953.83;105678;1270;61634;-62
2023/05/25 07:35:37;;;;;;;19.40;10.70;;;;;;;12.44;82.93;101949.84;105844;1273;61340;-59
2023/05/25 07:38:04;;;;;;;16.60;8.40;;;;;;;12.51;82.21;101946.83;106101;1269;61255;-59
2023/05/25 07:40:31;;;;;;;13.00;8.90;;;;;;;12.56;81.51;101954.68;106269;1270;71817;-63
2023/05/25 07:42:57;;;;;;;16.00;9.30;;;;;;;12.59;80.99;101956.67;105817;1269;61778;-62
2023/05/25 07:45:24;;;;;;;18.30;9.10;;;;;;;12.62;80.74;101962.06;105372;1270;61278;-60
2023/05/25 07:47:51;;;;;;;18.40;10.70;;;;;;;12.66;80.99;101961.12;105988;1270;72551;-62
2023/05/25 07:50:18;;;;;;;44.00;26.40;;;;;;;12.80;81.28;101958.46;105862;1270;71166;-62
2023/05/25 07:52:45;;;;;;;15.60;8.30;;;;;;;12.96;80.98;101960.15;105934;1270;71779;-60
2023/05/25 07:55:12;;;;;;;12.00;7.40;;;;;;;13.02;79.36;101961.27;105786;1269;62081;-63
2023/05/25 07:57:38;;;;;;;13.60;7.10;;;;;;;13.04;79.39;101958.29;105966;1270;61911;-61
2023/05/25 08:00:07;;;;;;;13.20;7.30;;;;;;;13.14;79.40;101956.70;106127;1270;73154;-61
2023/05/25 08:02:33;;;;;;;14.90;6.80;;;;;;;13.26;79.01;101962.77;105859;1270;71356;-60
2023/05/25 08:05:04;;;;;;;13.80;8.50;;;;;;;13.31;78.24;101967.04;105876;1270;70831;-61
2023/05/25 08:07:32;;;;;;;13.30;6.90;;;;;;;13.40;78.74;101967.54;105589;1270;60896;-64
2023/05/25 08:09:59;;;;;;;13.40;7.10;;;;;;;13.54;78.44;101965.66;105983;1270;61244;-60
2023/05/25 08:12:25;;;;;;;13.80;7.20;;;;;;;13.71;78.08;101961.23;105536;1270;74723;-62
2023/05/25 08:15:15;;;;;;;11.50;6.60;;;;;;;13.89;77.11;101961.02;105886;1270;73073;-61
2023/05/25 08:17:42;;;;;;;14.30;6.10;;;;;;;13.99;75.23;101960.53;106060;1273;71300;-62
2023/05/25 08:20:09;;;;;;;11.50;5.70;;;;;;;14.00;74.86;101962.16;105909;1270;61114;-65
2023/05/25 08:22:36;;;;;;;12.10;6.10;;;;;;;14.06;74.95;101964.00;105822;1273;61226;-61
2023/05/25 08:25:03;;;;;;;11.80;6.30;;;;;;;14.14;74.80;101969.77;105503;1270;281952;-61
2023/05/25 08:27:30;;;;;;;10.60;6.30;;;;;;;14.21;74.97;101967.94;106019;1270;69700;-63
2023/05/25 08:30:01;;;;;;;12.30;6.10;;;;;;;14.41;75.37;101964.81;105894;1273;72484;-63
2023/05/25 08:32:27;;;;;;;15.00;8.10;;;;;;;14.53;73.29;101966.02;106387;1270;61440;-62
2023/05/25 08:34:54;;;;;;;12.00;5.90;;;;;;;14.47;71.71;101968.11;105759;1272;61193;-64
2023/05/25 08:37:22;;;;;;;15.30;8.30;;;;;;;14.34;71.50;101970.95;105745;1270;61296;-63
2023/05/25 08:39:48;;;;;;;10.50;5.80;;;;;;;14.33;71.37;101972.33;106138;1270;70957;-63
2023/05/25 08:42:15;;;;;;;12.80;6.30;;;;;;;14.38;71.86;101969.76;105758;1270;72469;-65
2023/05/25 08:44:42;;;;;;;11.40;5.60;;;;;;;14.49;72.33;101969.40;105564;1277;61454;-63
2023/05/25 08:47:11;;;;;;;12.60;6.20;;;;;;;14.61;72.27;101970.98;105824;1270;61243;-63
2023/05/25 08:49:39;;;;;;;13.60;6.30;;;;;;;14.66;71.59;101969.94;106107;1269;74768;-64
2023/05/25 08:52:12;;;;;;;11.00;5.70;;;;;;;14.61;71.54;101970.77;105955;1270;71770;-65
2023/05/25 08:54:42;;;;;;;155.10;52.30;;;;;;;14.54;71.37;101974.06;105820;1273;74014;-68
2023/05/25 08:57:14;;;;;;;14.40;7.00;;;;;;;14.51;70.77;101980.31;105768;1272;62980;-65
2023/05/25 09:00:09;;;;;;;10.70;5.50;;;;;;;14.44;70.26;101983.56;106073;1270;61322;-64
2023/05/25 09:03:00;;;;;;;10.90;5.60;;;;;;;14.39;70.99;101984.61;105844;1270;73357;-66
2023/05/25 09:05:27;;;;;;;12.60;5.90;;;;;;;14.38;71.49;101984.78;105958;1270;70014;-64
2023/05/25 09:07:55;;;;;;;12.00;5.60;;;;;;;14.38;71.61;101980.98;105634;1270;73242;-65
2023/05/25 09:10:23;;;;;;;11.60;5.50;;;;;;;14.48;72.29;101979.38;105905;1270;61288;-65
2023/05/25 09:12:51;;;;;;;14.10;6.10;;;;;;;14.52;70.77;101979.82;105695;1271;61260;-62
2023/05/25 09:15:18;;;;;;;9.70;5.10;;;;;;;14.47;71.15;101979.83;105766;1273;75292;-66
2023/05/25 09:17:44;;;;;;;11.80;6.20;;;;;;;14.57;72.39;101977.45;105966;1270;61134;-64
2023/05/25 09:20:12;;;;;;;11.00;5.80;;;;;;;14.71;71.86;101979.54;105784;1270;71725;-65
2023/05/25 09:22:40;;;;;;;11.50;5.70;;;;;;;14.73;70.14;101983.60;105767;1273;60637;-64
2023/05/25 09:25:09;;;;;;;12.90;4.80;;;;;;;14.83;70.02;101983.65;105824;1270;61363;-63
2023/05/25 09:27:37;;;;;;;10.80;4.90;;;;;;;14.94;68.98;101982.85;105975;1272;73885;-65
2023/05/25 09:30:05;;;;;;;10.50;5.00;;;;;;;14.99;68.45;101985.66;105762;1273;72225;-64
2023/05/25 09:32:32;;;;;;;10.40;5.00;;;;;;;14.94;68.62;101981.61;105785;1269;72982;-66
2023/05/25 09:35:13;;;;;;;12.20;5.00;;;;;;;14.95;69.05;101985.45;106062;1270;60822;-66
2023/05/25 09:37:42;;;;;;;13.00;5.60;;;;;;;15.00;69.53;101987.96;105886;1268;61374;-65
2023/05/25 09:40:10;;;;;;;14.70;4.80;;;;;;;15.07;69.86;101989.92;105627;1270;74547;-64
2023/05/25 09:42:36;;;;;;;11.80;5.40;;;;;;;15.15;69.67;101989.97;106249;1270;71572;-66
2023/05/25 09:45:04;;;;;;;10.60;5.10;;;;;;;15.17;69.52;101989.27;105806;1270;72659;-64
2023/05/25 09:47:31;;;;;;;9.40;4.80;;;;;;;15.13;69.02;101991.23;105764;1271;61358;-66
2023/05/25 09:49:59;;;;;;;12.00;5.30;;;;;;;15.24;69.69;101988.74;105531;1271;61453;-66
2023/05/25 09:52:26;;;;;;;10.70;4.80;;;;;;;15.45;69.19;101992.88;106145;1270;74777;-66
2023/05/25 09:54:53;;;;;;;8.50;4.60;;;;;;;15.57;67.91;101997.31;105927;1270;71342;-66
2023/05/25 09:57:20;;;;;;;11.30;4.90;;;;;;;15.58;67.45;101997.39;105988;1269;72756;-65
2023/05/25 09:59:47;;;;;;;11.50;4.90;;;;;;;15.67;67.27;102003.17;106266;1270;62069;-66
2023/05/25 10:02:14;;;;;;;10.70;4.20;;;;;;;15.71;67.88;102003.68;105555;1271;61415;-65
2023/05/25 10:04:41;;;;;;;11.60;4.80;;;;;;;15.75;68.13;102010.90;105795;1270;74912;-66
2023/05/25 10:07:08;;;;;;;9.40;4.40;;;;;;;15.77;67.89;102009.08;105553;1270;71227;-64
2023/05/25 10:09:39;;;;;;;11.40;4.60;;;;;;;15.83;67.90;102013.42;105755;1273;72483;-65
2023/05/25 10:12:06;;;;;;;9.20;4.40;;;;;;;15.90;67.56;102014.05;105668;1269;62966;-65
2023/05/25 10:14:35;;;;;;;9.60;4.60;;;;;;;15.91;67.13;102018.72;105954;1271;61474;-65
2023/05/25 10:17:05;;;;;;;10.80;4.70;;;;;;;15.89;67.01;102017.66;105998;1272;72897;-65
2023/05/25 10:19:41;;;;;;;7.90;4.50;;;;;;;15.90;66.87;102018.05;106884;1270;72472;-65
2023/05/25 10:22:47;;;;;;;9.40;4.60;;;;;;;15.99;66.49;102018.00;107091;1270;73102;-65
2023/05/25 10:25:22;;;;;;;7.80;3.80;;;;;;;16.08;65.40;102016.16;105932;1273;62273;-68
2023/05/25 10:27:59;;;;;;;10.40;4.60;;;;;;;16.19;65.61;102014.60;106607;1273;59622;-65
2023/05/25 10:30:29;;;;;;;10.80;4.40;;;;;;;16.29;65.43;102011.59;106606;1270;75607;-65
2023/05/25 10:32:56;;;;;;;9.10;4.30;;;;;;;16.44;65.39;102013.92;106573;1270;70003;-67
2023/05/25 10:35:23;;;;;;;7.50;4.10;;;;;;;16.44;64.19;102017.16;106589;1269;72403;-67
2023/05/25 10:37:51;;;;;;;8.50;4.10;;;;;;;16.52;64.04;102014.27;106516;1268;62186;-65
2023/05/25 10:40:21;;;;;;;8.60;4.00;;;;;;;16.67;63.31;102014.30;106573;1267;60364;-65
2023/05/25 10:42:50;;;;;;;7.10;3.50;;;;;;;16.93;62.95;102007.26;106560;1269;74706;-65
2023/05/25 10:45:17;;;;;;;9.00;3.90;;;;;;;17.11;61.62;102010.19;106682;1270;71999;-65
2023/05/25 10:47:45;;;;;;;8.10;3.70;;;;;;;17.18;61.15;102010.39;106531;1268;72728;-65
2023/05/25 10:50:28;;;;;;;7.30;3.10;;;;;;;17.12;61.03;102015.85;106675;1270;60425;-65
2023/05/25 10:53:01;;;;;;;12.70;4.30;;;;;;;16.80;61.42;102021.11;106701;1273;60636;-64
2023/05/25 10:55:40;;;;;;;10.10;4.40;;;;;;;16.69;62.08;102022.09;106743;1270;74468;-64
2023/05/25 10:58:11;;;;;;;9.70;4.10;;;;;;;16.79;62.31;102020.73;106709;1273;71679;-65
2023/05/25 11:00:39;;;;;;;7.20;3.60;;;;;;;16.95;61.21;102014.90;106689;1273;71388;-65
2023/05/25 11:03:06;;;;;;;8.50;4.20;;;;;;;16.99;60.19;102012.25;106669;1270;59451;-65
2023/05/25 11:05:39;;;;;;;9.10;4.10;;;;;;;17.00;59.62;102012.84;106658;1269;59517;-65
2023/05/25 11:08:08;;;;;;;8.20;3.80;;;;;;;16.89;59.46;102010.08;106691;1269;73574;-65
2023/05/25 11:10:47;;;;;;;10.30;3.90;;;;;;;16.80;61.01;102010.84;106739;1270;70999;-65
2023/05/25 11:13:36;;;;;;;7.50;3.80;;;;;;;16.56;62.25;102018.02;106755;1270;71911;-67